createdAt,value
2022-11-07T00:03:13.189Z,1.42
2022-11-07T00:07:16.366Z,1.85
2022-11-07T00:11:19.140Z,1.50
2022-11-07T00:15:21.993Z,1.40
2022-11-07T00:19:24.807Z,1.30
2022-11-07T00:23:27.559Z,1.33
2022-11-07T00:27:30.354Z,1.33
2022-11-07T00:31:33.587Z,1.30
2022-11-07T00:35:41.819Z,1.20
2022-11-07T00:39:44.737Z,1.48
2022-11-07T00:43:47.824Z,1.55
2022-11-07T00:47:52.356Z,1.73
2022-11-07T00:51:55.187Z,1.20
2022-11-07T00:56:06.370Z,1.70
2022-11-07T01:00:10.064Z,1.40
2022-11-07T01:04:32.068Z,2.53
2022-11-07T01:08:35.083Z,1.80
2022-11-07T01:12:38.081Z,1.48
2022-11-07T01:16:42.065Z,2.30
2022-11-07T01:20:44.860Z,1.30
2022-11-07T01:24:47.850Z,1.30
2022-11-07T01:28:50.741Z,1.13
2022-11-07T01:32:53.508Z,1.10
2022-11-07T01:36:56.328Z,1.35
2022-11-07T01:41:17.282Z,1.40
2022-11-07T01:45:23.621Z,1.30
2022-11-07T01:49:36.042Z,1.42
2022-11-07T01:53:39.007Z,1.20
2022-11-07T01:57:50.078Z,1.90
2022-11-07T02:01:53.795Z,2.08
2022-11-07T02:06:01.796Z,2.20
2022-11-07T02:10:05.083Z,2.20
2022-11-07T02:14:08.001Z,1.70
2022-11-07T02:18:11.185Z,1.40
2022-11-07T02:22:13.863Z,1.50
2022-11-07T02:26:17.256Z,1.30
2022-11-07T02:30:23.910Z,1.50
2022-11-07T02:34:26.665Z,1.70
2022-11-07T02:38:32.969Z,1.40
2022-11-07T02:42:44.410Z,1.33
2022-11-07T02:46:47.190Z,1.40
2022-11-07T02:50:49.949Z,1.38
2022-11-07T02:54:53.123Z,1.40
2022-11-07T02:58:56.020Z,1.40
2022-11-07T03:02:58.948Z,1.90
2022-11-07T03:07:01.737Z,1.48
2022-11-07T03:11:05.038Z,1.73
2022-11-07T03:15:09.642Z,1.55
2022-11-07T03:19:12.485Z,2.88
2022-11-07T03:23:15.939Z,3.20
2022-11-07T03:27:19.769Z,2.75
2022-11-07T03:31:22.623Z,2.00
2022-11-07T03:35:25.424Z,1.40
2022-11-07T03:39:28.226Z,1.65
2022-11-07T03:43:30.980Z,2.35
2022-11-07T03:47:38.833Z,1.70
2022-11-07T03:51:41.563Z,1.73
2022-11-07T03:55:47.469Z,1.80
2022-11-07T03:59:50.230Z,1.63
2022-11-07T04:03:56.211Z,1.95
2022-11-07T04:07:59.313Z,2.10
2022-11-07T04:12:20.612Z,2.30
2022-11-07T04:16:58.749Z,1.85
2022-11-07T04:21:01.517Z,1.83
2022-11-07T04:25:05.119Z,2.25
2022-11-07T04:29:07.943Z,1.95
2022-11-07T04:33:10.641Z,1.92
2022-11-07T04:37:13.772Z,1.73
2022-11-07T04:41:24.316Z,2.50
2022-11-07T04:45:27.179Z,3.00
2022-11-07T04:49:29.917Z,2.45
2022-11-07T04:53:32.657Z,2.10
2022-11-07T04:57:35.809Z,2.40
2022-11-07T05:01:38.733Z,2.25
2022-11-07T05:05:41.558Z,1.70
2022-11-07T05:09:44.372Z,2.70
2022-11-07T05:13:47.240Z,2.97
2022-11-07T05:17:50.512Z,3.38
2022-11-07T05:22:11.771Z,3.38
2022-11-07T05:26:15.008Z,3.17
2022-11-07T05:30:17.809Z,2.10
2022-11-07T05:34:20.506Z,2.05
2022-11-07T05:38:23.523Z,1.55
2022-11-07T05:42:26.245Z,1.67
2022-11-07T05:46:28.923Z,2.10
2022-11-07T05:50:31.785Z,2.70
2022-11-07T05:54:34.537Z,2.22
2022-11-07T05:58:37.470Z,2.22
2022-11-07T06:02:40.786Z,4.07
2022-11-07T06:06:43.749Z,2.95
2022-11-07T06:10:46.468Z,2.55
2022-11-07T06:14:49.500Z,2.78
2022-11-07T06:18:52.312Z,2.22
2022-11-07T06:23:03.621Z,2.30
2022-11-07T06:27:06.479Z,2.35
2022-11-07T06:31:11.142Z,2.22
2022-11-07T06:35:13.995Z,2.50
2022-11-07T06:39:16.793Z,3.20
2022-11-07T06:43:20.449Z,3.55
2022-11-07T06:47:23.610Z,3.80
2022-11-07T06:51:26.472Z,4.30
2022-11-07T06:55:29.440Z,5.13
2022-11-07T06:59:32.269Z,4.93
2022-11-07T07:03:35.011Z,4.95
2022-11-07T07:07:37.838Z,5.18
2022-11-07T07:11:42.801Z,3.97
2022-11-07T07:15:54.169Z,2.88
2022-11-07T07:19:56.954Z,4.80
2022-11-07T07:23:59.711Z,2.90
2022-11-07T07:28:02.628Z,3.75
2022-11-07T07:32:05.470Z,7.07
2022-11-07T07:36:09.268Z,6.15
2022-11-07T07:40:12.334Z,4.97
2022-11-07T07:44:15.309Z,5.75
2022-11-07T07:48:18.103Z,6.43
2022-11-07T07:52:20.926Z,6.28
2022-11-07T07:56:23.800Z,6.03
2022-11-07T08:00:27.052Z,6.97
2022-11-07T08:04:29.853Z,6.13
2022-11-07T08:08:37.974Z,5.35
2022-11-07T08:12:45.984Z,6.47
2022-11-07T08:16:48.819Z,6.03
2022-11-07T08:20:53.776Z,4.82
2022-11-07T08:24:56.834Z,23.65
2022-11-07T08:29:00.002Z,42.10
2022-11-07T08:33:03.588Z,7.85
2022-11-07T08:37:06.488Z,4.90
2022-11-07T08:41:09.930Z,5.20
2022-11-07T08:45:13.062Z,4.40
2022-11-07T08:49:16.419Z,4.80
2022-11-07T08:53:19.628Z,6.20
2022-11-07T08:57:22.838Z,16.20
2022-11-07T09:01:26.120Z,6.05
2022-11-07T09:05:29.422Z,5.28
2022-11-07T09:09:32.620Z,5.18
2022-11-07T09:13:35.683Z,6.90
2022-11-07T09:17:39.137Z,5.88
2022-11-07T09:21:42.510Z,19.65
2022-11-07T09:25:46.180Z,9.30
2022-11-07T09:29:49.081Z,5.05
2022-11-07T09:33:51.940Z,5.80
2022-11-07T09:37:55.207Z,6.05
2022-11-07T09:42:04.225Z,6.18
2022-11-07T09:46:20.898Z,5.60
2022-11-07T09:50:41.378Z,6.60
2022-11-07T09:54:50.942Z,5.97
2022-11-07T09:58:57.477Z,8.80
2022-11-07T10:03:04.414Z,5.80
2022-11-07T10:07:17.938Z,5.38
2022-11-07T10:11:38.805Z,6.50
2022-11-07T10:15:52.067Z,5.32
2022-11-07T10:20:32.389Z,5.38
2022-11-07T10:24:46.475Z,4.85
2022-11-07T10:28:54.619Z,6.00
2022-11-07T10:33:03.623Z,5.00
2022-11-07T10:37:06.651Z,6.47
2022-11-07T10:41:22.409Z,8.75
2022-11-07T10:45:33.411Z,12.23
2022-11-07T10:49:36.606Z,11.43
2022-11-07T10:53:44.857Z,7.35
2022-11-07T10:58:12.721Z,6.45
2022-11-07T11:02:30.455Z,5.93
2022-11-07T11:06:33.452Z,6.90
2022-11-07T11:10:39.351Z,5.70
2022-11-07T11:14:42.722Z,6.00
2022-11-07T11:18:52.929Z,5.80
2022-11-07T11:22:57.131Z,5.70
2022-11-07T11:27:17.563Z,6.10
2022-11-07T11:31:39.266Z,5.50
2022-11-07T11:36:04.607Z,5.57
2022-11-07T11:40:30.365Z,5.43
2022-11-07T11:44:47.749Z,5.13
2022-11-07T11:49:14.801Z,5.57
2022-11-07T11:53:29.478Z,4.90
2022-11-07T11:58:24.483Z,4.68
2022-11-07T12:03:15.401Z,4.55
2022-11-07T12:08:05.983Z,4.55
2022-11-07T12:13:13.194Z,5.07
2022-11-07T12:22:45.937Z,4.60
2022-11-07T12:27:42.485Z,4.88
2022-11-07T12:31:59.072Z,4.72
2022-11-07T12:45:59.718Z,4.00
2022-11-07T12:50:35.312Z,4.05
2022-11-07T12:55:20.585Z,3.40
2022-11-07T12:59:30.102Z,3.50
2022-11-07T13:04:18.147Z,3.28
2022-11-07T13:08:35.123Z,2.70
2022-11-07T13:12:51.096Z,2.85
2022-11-07T13:17:19.356Z,1.98
2022-11-07T13:22:18.483Z,3.90
2022-11-07T13:26:46.984Z,3.45
2022-11-07T13:31:02.419Z,3.78
2022-11-07T13:35:29.987Z,3.25
2022-11-07T13:39:33.955Z,3.95
2022-11-07T13:43:51.929Z,3.03
2022-11-07T13:49:46.164Z,2.90
2022-11-07T13:58:43.547Z,2.10
2022-11-07T14:02:53.081Z,2.28
2022-11-07T14:07:01.919Z,2.25
2022-11-07T14:11:15.784Z,1.88
2022-11-07T14:15:24.864Z,1.90
2022-11-07T14:19:28.548Z,2.13
2022-11-07T14:23:32.915Z,2.22
2022-11-07T14:27:35.931Z,2.00
2022-11-07T14:31:38.994Z,2.20
2022-11-07T14:36:00.844Z,1.92
2022-11-07T14:40:06.797Z,2.38
2022-11-07T14:44:20.291Z,2.53
2022-11-07T14:48:54.889Z,2.20
2022-11-07T14:53:09.127Z,2.08
2022-11-07T14:57:14.963Z,2.22
2022-11-07T15:01:28.078Z,2.30
2022-11-07T15:05:38.401Z,2.00
2022-11-07T15:09:54.864Z,2.40
2022-11-07T15:14:23.522Z,2.17
2022-11-07T15:18:44.375Z,1.95
2022-11-07T15:22:54.435Z,1.80
2022-11-07T15:27:25.989Z,2.40
2022-11-07T15:32:33.095Z,2.33
2022-11-07T15:42:30.344Z,2.97
2022-11-07T15:51:18.323Z,4.13
2022-11-07T16:00:26.445Z,2.60
2022-11-07T16:04:57.036Z,3.05
2022-11-07T16:09:14.187Z,2.28
2022-11-07T16:13:17.760Z,2.35
2022-11-07T16:17:22.513Z,2.20
2022-11-07T16:21:27.795Z,2.20
2022-11-07T16:25:32.994Z,2.10
2022-11-07T16:29:36.119Z,2.78
2022-11-07T16:33:39.368Z,2.15
2022-11-07T16:37:50.280Z,3.22
2022-11-07T16:41:56.230Z,2.30
2022-11-07T16:45:59.142Z,1.73
2022-11-07T16:50:13.352Z,6.35
2022-11-07T16:54:18.420Z,2.92
2022-11-07T16:58:33.992Z,2.28
2022-11-07T17:02:43.275Z,1.73
2022-11-07T17:06:47.770Z,1.52
2022-11-07T17:10:50.835Z,1.75
2022-11-07T17:14:55.069Z,1.73
2022-11-07T17:18:59.422Z,2.10
2022-11-07T17:23:09.481Z,2.00
2022-11-07T17:27:23.242Z,2.00
2022-11-07T17:31:37.662Z,1.90
2022-11-07T17:35:45.587Z,1.90
2022-11-07T17:40:46.727Z,2.00
2022-11-07T17:45:55.063Z,1.70
2022-11-07T17:50:30.373Z,1.85
2022-11-07T17:54:39.430Z,2.45
2022-11-07T17:59:32.350Z,2.30
2022-11-07T18:10:59.196Z,2.33
2022-11-07T18:21:22.319Z,9.57
2022-11-07T18:41:57.483Z,2.60
2022-11-07T18:47:34.985Z,2.03
2022-11-07T18:51:46.054Z,3.55
2022-11-07T18:56:12.500Z,3.38
2022-11-07T19:00:29.418Z,5.55
2022-11-07T19:04:59.708Z,4.50
2022-11-07T19:09:25.638Z,7.32
2022-11-07T19:13:58.686Z,5.70
2022-11-07T19:18:30.752Z,4.22
2022-11-07T19:22:57.006Z,4.32
2022-11-07T19:27:11.983Z,3.60
2022-11-07T19:31:57.659Z,5.40
2022-11-07T21:33:20.510Z,7.95
2022-11-07T21:37:56.802Z,6.63
2022-11-07T21:42:10.443Z,3.40
2022-11-07T21:46:28.175Z,3.78
2022-11-07T21:50:44.177Z,3.63
2022-11-07T21:54:57.338Z,3.03
2022-11-07T22:04:07.836Z,5.70
2022-11-07T22:08:21.076Z,2.88
2022-11-07T22:12:26.507Z,3.50
2022-11-07T22:16:29.557Z,4.38
2022-11-07T22:20:39.179Z,4.63
2022-11-07T22:24:42.211Z,6.97
2022-11-07T22:28:46.454Z,4.95
2022-11-07T22:32:51.734Z,5.95
2022-11-07T22:36:57.249Z,5.25
2022-11-07T22:41:05.006Z,6.22
2022-11-07T22:45:18.642Z,5.90
2022-11-07T22:49:29.105Z,5.55
2022-11-07T22:53:35.052Z,3.83
2022-11-07T22:57:40.963Z,5.20
2022-11-07T23:01:49.450Z,5.10
2022-11-07T23:05:55.094Z,5.43
2022-11-07T23:10:00.763Z,4.28
2022-11-07T23:14:14.045Z,4.18
2022-11-07T23:18:19.778Z,4.32
2022-11-07T23:22:31.223Z,4.20
2022-11-07T23:26:43.802Z,4.10
2022-11-07T23:30:57.240Z,3.88
2022-11-07T23:35:05.251Z,7.28
2022-11-07T23:39:10.528Z,10.55
2022-11-07T23:43:13.651Z,6.05
2022-11-07T23:47:42.182Z,6.50
2022-11-07T23:51:45.862Z,9.60
2022-11-07T23:55:48.923Z,7.75
